Time;durP1;ratioP1;P1;durP2;ratioP2;P2;SDS_P1;SDS_P2;PMS_P1;PMS_P2;Temp;Humidity;BMP_temperature;BMP_pressure;BME280_temperature;BME280_humidity;BME280_pressure;Samples;Min_cycle;Max_cycle;Signal;HPM_P1;HPM_P2
2021/09/04 00:01:12;;;;;;;;;11.75;11.75;;;;;24.68;47.86;101189.47;5015850;28;45430;-81
2021/09/04 00:03:38;;;;;;;;;20.50;17.25;;;;;24.66;48.08;101193.91;5016741;28;45541;-82
2021/09/04 00:06:03;;;;;;;;;14.25;14.25;;;;;24.61;48.73;101191.28;5016214;28;45514;-80
2021/09/04 00:08:29;;;;;;;;;17.75;15.00;;;;;24.58;48.39;101191.31;5015848;28;45453;-82
2021/09/04 00:10:54;;;;;;;;;17.50;15.50;;;;;24.54;48.09;101195.75;5018417;28;45357;-82
2021/09/04 00:13:20;;;;;;;;;14.00;13.50;;;;;24.52;48.75;101207.25;5019085;28;45384;-82
2021/09/04 00:15:46;;;;;;;;;16.00;14.75;;;;;24.50;48.94;101198.44;5020329;28;46268;-82
2021/09/04 00:18:12;;;;;;;;;17.50;15.00;;;;;24.47;49.00;101204.63;5019370;28;45397;-81
2021/09/04 00:20:38;;;;;;;;;14.25;13.00;;;;;24.45;48.61;101210.84;5036506;28;45429;-81
2021/09/04 00:23:03;;;;;;;;;17.25;13.25;;;;;24.41;48.80;101207.28;5033535;28;45415;-82
2021/09/04 00:25:29;;;;;;;;;14.00;13.00;;;;;24.38;48.64;101202.91;5015942;28;45343;-80
2021/09/04 00:27:55;;;;;;;;;16.25;16.25;;;;;24.39;48.70;101212.63;5031217;28;45378;-80
2021/09/04 00:30:20;;;;;;;;;15.25;14.25;;;;;24.38;48.77;101200.25;5016040;28;45236;-80
2021/09/04 00:32:46;;;;;;;;;13.50;13.50;;;;;24.35;49.16;101199.41;5016387;28;45539;-81
2021/09/04 00:35:12;;;;;;;;;11.50;11.50;;;;;24.34;48.68;101198.53;5015428;28;45239;-81
2021/09/04 00:37:37;;;;;;;;;15.25;14.25;;;;;24.32;48.81;101195.03;5015971;28;45440;-81
2021/09/04 00:40:05;;;;;;;;;10.50;8.50;;;;;24.29;49.02;101191.53;5035708;28;45647;-79
2021/09/04 00:42:31;;;;;;;;;14.50;14.50;;;;;24.29;49.32;101188.88;5021345;28;45592;-80
2021/09/04 00:44:57;;;;;;;;;14.25;13.25;;;;;24.29;49.04;101186.22;5036576;28;45426;-80
2021/09/04 00:47:23;;;;;;;;;13.00;13.00;;;;;24.28;49.09;101193.28;5035550;28;45459;-81
2021/09/04 00:49:49;;;;;;;;;15.50;14.50;;;;;24.27;49.13;101188.88;5034272;28;45448;-81
2021/09/04 00:52:16;;;;;;;;;13.50;13.50;;;;;24.27;49.01;101192.41;5035686;28;45539;-80
2021/09/04 00:54:42;;;;;;;;;13.00;13.00;;;;;24.27;49.02;101186.22;5022187;28;45630;-81
2021/09/04 00:57:07;;;;;;;;;15.50;14.25;;;;;24.24;48.81;101181.84;5015723;28;45949;-82
2021/09/04 00:59:34;;;;;;;;;14.00;12.00;;;;;24.21;48.82;101179.19;5015485;28;45354;-81
2021/09/04 01:01:59;;;;;;;;;15.25;14.75;;;;;24.20;48.92;101185.38;5015856;28;45927;-81
2021/09/04 01:04:25;;;;;;;;;14.75;13.00;;;;;24.19;48.86;101180.09;5025787;28;45659;-80
2021/09/04 01:06:51;;;;;;;;;16.00;14.75;;;;;24.16;48.94;101182.75;5035582;28;45425;-80
2021/09/04 01:09:17;;;;;;;;;14.75;12.25;;;;;24.13;49.26;101181.00;5038064;28;45338;-81
2021/09/04 01:11:42;;;;;;;;;13.25;13.25;;;;;24.08;49.12;101175.75;5024218;28;45516;-80
2021/09/04 01:14:08;;;;;;;;;15.25;15.25;;;;;24.06;49.12;101179.31;5018891;28;45922;-80
2021/09/04 01:16:39;;;;;;;;;15.75;13.75;;;;;24.04;49.28;101174.00;5018569;28;45480;-81
2021/09/04 01:19:05;;;;;;;;;17.25;15.50;;;;;24.05;49.41;101180.19;5019252;28;45554;-80
2021/09/04 01:21:32;;;;;;;;;19.00;15.00;;;;;24.05;49.48;101178.41;5019306;28;45660;-81
2021/09/04 01:24:03;;;;;;;;;18.00;14.50;;;;;24.03;49.10;101182.81;5018058;28;46077;-81
2021/09/04 01:26:29;;;;;;;;;13.50;13.50;;;;;24.00;48.86;101171.38;5023541;28;45625;-80
2021/09/04 01:28:55;;;;;;;;;13.50;12.50;;;;;23.97;49.50;101174.06;5021506;28;45392;-80
2021/09/04 01:31:23;;;;;;;;;14.50;14.00;;;;;23.95;49.58;101168.75;5018765;28;45573;-80
2021/09/04 01:33:49;;;;;;;;;16.50;15.50;;;;;23.93;49.46;101163.47;5018304;28;45462;-80
2021/09/04 01:36:29;;;;;;;;;11.00;11.00;;;;;23.95;49.38;101171.41;5020124;28;45762;-81
2021/09/04 01:38:55;;;;;;;;;16.00;15.00;;;;;23.96;49.48;101167.88;5020207;28;45538;-80
2021/09/04 01:41:21;;;;;;;;;14.25;13.50;;;;;23.94;49.12;101166.97;5018462;28;45333;-81
2021/09/04 01:43:46;;;;;;;;;13.75;13.75;;;;;23.92;49.42;101163.44;5018370;28;45421;-81
2021/09/04 01:46:12;;;;;;;;;13.00;13.00;;;;;23.91;49.40;101167.00;5018259;28;45393;-81
2021/09/04 01:48:38;;;;;;;;;15.50;13.00;;;;;23.89;49.10;101164.34;5018650;28;45347;-81
2021/09/04 01:51:03;;;;;;;;;14.25;14.25;;;;;23.86;49.58;101174.06;5029287;28;45593;-81
2021/09/04 01:53:29;;;;;;;;;13.25;13.00;;;;;23.84;49.45;101174.09;5036739;28;47678;-81
2021/09/04 01:55:54;;;;;;;;;19.50;14.00;;;;;23.84;49.51;101175.84;5038351;28;45384;-81
2021/09/04 01:58:20;;;;;;;;;12.50;12.50;;;;;23.80;49.85;101173.22;5037207;28;45275;-81
2021/09/04 02:00:46;;;;;;;;;16.00;14.50;;;;;23.76;50.20;101171.47;5039172;28;45227;-81
2021/09/04 02:03:11;;;;;;;;;15.00;14.25;;;;;23.76;50.00;101170.56;5038306;28;45318;-81
2021/09/04 02:05:37;;;;;;;;;18.00;16.75;;;;;23.76;50.20;101168.81;5038366;28;45171;-80
2021/09/04 02:08:02;;;;;;;;;18.00;16.25;;;;;23.75;50.42;101166.19;5018023;28;45306;-80
2021/09/04 02:10:28;;;;;;;;;15.00;15.00;;;;;23.74;50.60;101167.09;5018007;28;45379;-80
2021/09/04 02:12:54;;;;;;;;;22.25;17.75;;;;;23.73;50.88;101170.63;5018856;28;45390;-80
2021/09/04 02:15:19;;;;;;;;;19.25;17.50;;;;;23.72;51.04;101172.34;5024641;28;45915;-81
2021/09/04 02:17:45;;;;;;;;;17.25;17.25;;;;;23.68;50.64;101162.69;5037897;28;45430;-81
2021/09/04 02:20:11;;;;;;;;;18.25;17.25;;;;;23.66;50.93;101164.47;5037092;28;45383;-81
2021/09/04 02:22:37;;;;;;;;;16.50;16.50;;;;;23.61;50.76;101167.13;5017873;28;45414;-80
2021/09/04 02:25:04;;;;;;;;;15.75;14.75;;;;;23.57;50.94;101161.88;5017717;28;45454;-81
2021/09/04 02:27:30;;;;;;;;;15.50;15.25;;;;;23.57;51.13;101151.28;5032988;28;45296;-81
2021/09/04 02:29:56;;;;;;;;;16.75;16.25;;;;;23.52;51.11;101155.69;5037979;28;45254;-81
2021/09/04 02:32:21;;;;;;;;;17.00;16.75;;;;;23.46;51.25;101156.59;5039577;28;46010;-80
2021/09/04 02:34:47;;;;;;;;;22.25;20.00;;;;;23.43;51.71;101164.56;5035108;28;45387;-81
2021/09/04 02:37:12;;;;;;;;;22.25;20.50;;;;;23.39;52.08;101158.38;5017692;28;45338;-81
2021/09/04 02:39:38;;;;;;;;;23.25;21.25;;;;;23.37;52.44;101162.81;5018040;28;45256;-81
2021/09/04 02:42:03;;;;;;;;;20.50;17.75;;;;;23.36;52.43;101163.69;5017436;28;45668;-80
2021/09/04 02:44:29;;;;;;;;;19.75;18.00;;;;;23.36;52.37;101165.44;5017300;28;45358;-82
2021/09/04 02:46:54;;;;;;;;;14.00;12.25;;;;;23.34;52.53;101161.03;5017594;28;45854;-81
2021/09/04 02:49:20;;;;;;;;;20.75;19.50;;;;;23.32;52.37;101157.50;5017361;28;45402;-81
2021/09/04 02:51:46;;;;;;;;;21.75;21.00;;;;;23.30;52.03;101161.03;5015903;28;46381;-82
2021/09/04 02:54:12;;;;;;;;;22.00;21.25;;;;;23.27;52.33;101166.34;5020280;28;45795;-81
2021/09/04 02:56:38;;;;;;;;;27.75;22.75;;;;;23.26;52.63;101161.97;5032142;28;45592;-81
2021/09/04 02:59:03;;;;;;;;;25.25;22.25;;;;;23.25;52.67;101158.41;5035143;28;45329;-82
2021/09/04 03:01:30;;;;;;;;;26.00;24.75;;;;;23.25;52.40;101162.84;5020869;28;45382;-81
2021/09/04 03:03:55;;;;;;;;;25.50;22.50;;;;;23.23;52.41;101164.59;5029697;28;45697;-81
2021/09/04 03:06:21;;;;;;;;;21.50;20.25;;;;;23.21;52.55;101155.78;5036824;28;45303;-81
2021/09/04 03:08:46;;;;;;;;;21.50;19.75;;;;;23.17;52.84;101158.38;5037248;28;45501;-81
2021/09/04 03:11:12;;;;;;;;;20.50;19.25;;;;;23.15;52.66;101152.25;5036821;28;45369;-81
2021/09/04 03:13:38;;;;;;;;;28.25;23.25;;;;;23.16;52.63;101158.41;5026815;28;45199;-81
2021/09/04 03:16:04;;;;;;;;;24.00;21.50;;;;;23.16;52.80;101155.78;5037118;28;45302;-80
2021/09/04 03:18:29;;;;;;;;;23.25;20.75;;;;;23.19;52.68;101156.66;5036706;28;45994;-81
2021/09/04 03:20:55;;;;;;;;;20.00;18.25;;;;;23.19;52.75;101154.03;5021010;28;46542;-81
2021/09/04 03:23:21;;;;;;;;;24.75;22.00;;;;;23.21;52.92;101155.78;5016588;28;45441;-81
2021/09/04 03:25:46;;;;;;;;;22.00;21.50;;;;;23.19;53.05;101156.66;5017102;28;45453;-81
2021/09/04 03:28:12;;;;;;;;;21.25;20.75;;;;;23.16;52.67;101155.78;5021420;28;45371;-81
2021/09/04 03:30:38;;;;;;;;;24.00;20.75;;;;;23.14;52.94;101155.78;5017704;28;45845;-81
2021/09/04 03:33:03;;;;;;;;;23.50;19.50;;;;;23.17;52.99;101154.88;5016504;28;45328;-81
2021/09/04 03:35:29;;;;;;;;;18.00;18.00;;;;;23.17;52.95;101154.88;5015873;28;45505;-81
2021/09/04 03:37:54;;;;;;;;;23.25;20.75;;;;;23.17;52.58;101153.09;5017065;28;45275;-81
2021/09/04 03:40:20;;;;;;;;;22.25;17.00;;;;;23.15;52.68;101152.25;5016373;28;45220;-81
2021/09/04 03:42:46;;;;;;;;;18.75;18.50;;;;;23.15;52.39;101152.25;5016907;28;45242;-81
2021/09/04 03:45:12;;;;;;;;;17.50;16.00;;;;;23.17;51.98;101157.53;5016982;28;45236;-80
2021/09/04 03:47:38;;;;;;;;;15.50;14.75;;;;;23.14;51.61;101154.88;5032017;28;45616;-81
2021/09/04 03:50:04;;;;;;;;;18.25;14.75;;;;;23.14;51.32;101154.88;5022666;28;45578;-80
2021/09/04 03:52:29;;;;;;;;;17.00;14.50;;;;;23.12;51.46;101152.25;5035392;28;45316;-80
2021/09/04 03:54:55;;;;;;;;;16.75;16.75;;;;;23.13;51.62;101151.38;5035915;28;45477;-80
2021/09/04 03:57:20;;;;;;;;;22.00;14.75;;;;;23.12;51.18;101154.91;5036339;28;45376;-80
2021/09/04 03:59:46;;;;;;;;;17.00;14.75;;;;;23.11;51.52;101154.91;5036125;28;46320;-80
2021/09/04 04:02:12;;;;;;;;;17.75;15.25;;;;;23.09;51.44;101149.63;5014823;28;45505;-80
2021/09/04 04:04:37;;;;;;;;;18.00;16.00;;;;;23.08;51.07;101150.50;5032695;28;45417;-80
2021/09/04 04:07:03;;;;;;;;;17.75;17.00;;;;;23.07;51.16;101139.94;5036395;28;45390;-80
2021/09/04 04:09:29;;;;;;;;;17.75;14.50;;;;;23.08;51.67;101144.34;5035125;28;46015;-80
2021/09/04 04:11:54;;;;;;;;;20.00;16.00;;;;;23.07;51.31;101132.88;5036397;28;45404;-80
2021/09/04 04:14:20;;;;;;;;;19.50;18.50;;;;;23.07;50.85;101140.81;5034450;28;45369;-80
2021/09/04 04:16:45;;;;;;;;;16.75;16.50;;;;;23.08;51.06;101145.22;5036260;28;45512;-80
2021/09/04 04:19:11;;;;;;;;;16.25;16.00;;;;;23.06;51.31;101139.03;5035424;28;45975;-80
2021/09/04 04:21:36;;;;;;;;;14.75;13.50;;;;;23.04;51.18;101143.47;5019960;28;45445;-80
2021/09/04 04:24:03;;;;;;;;;16.00;14.75;;;;;23.00;51.62;101147.00;5018305;28;45417;-79
2021/09/04 04:26:28;;;;;;;;;16.25;16.25;;;;;22.97;51.28;101144.34;5031408;28;45445;-79
2021/09/04 04:28:54;;;;;;;;;17.00;15.25;;;;;22.95;51.25;101148.75;5015589;28;45252;-80
2021/09/04 04:31:19;;;;;;;;;17.00;16.75;;;;;22.92;51.66;101149.63;5031017;28;46022;-80
2021/09/04 04:33:45;;;;;;;;;17.00;15.50;;;;;22.90;51.30;101135.56;5015758;28;45275;-79
2021/09/04 04:36:11;;;;;;;;;19.50;17.00;;;;;22.86;51.48;101137.31;5016628;28;45509;-80
2021/09/04 04:38:36;;;;;;;;;16.25;15.75;;;;;22.85;51.66;101143.47;5014581;28;46010;-81
2021/09/04 04:41:03;;;;;;;;;20.00;17.50;;;;;22.82;51.53;101143.50;5015721;28;45555;-80
2021/09/04 04:43:30;;;;;;;;;17.25;16.00;;;;;22.80;51.90;101139.06;5025611;28;45347;-79
2021/09/04 04:45:55;;;;;;;;;19.00;17.75;;;;;22.81;51.74;101144.38;5034616;28;45508;-79
2021/09/04 04:48:21;;;;;;;;;17.75;16.00;;;;;22.81;51.83;101139.09;5037402;28;45275;-79
2021/09/04 04:50:47;;;;;;;;;18.75;18.00;;;;;22.83;52.06;101136.44;5038510;28;45283;-79
2021/09/04 04:53:13;;;;;;;;;20.75;17.25;;;;;22.81;51.76;101141.75;5036221;28;45238;-79
2021/09/04 04:55:39;;;;;;;;;17.50;17.00;;;;;22.79;51.82;101140.84;5018371;28;45721;-79
2021/09/04 04:58:04;;;;;;;;;19.25;16.25;;;;;22.78;51.73;101136.44;5032603;28;45687;-79
2021/09/04 05:00:30;;;;;;;;;16.25;16.25;;;;;22.80;51.93;101141.72;5038740;28;45331;-80
2021/09/04 05:02:56;;;;;;;;;20.25;17.75;;;;;22.83;51.92;101141.72;5038965;28;45382;-79
2021/09/04 05:05:21;;;;;;;;;23.75;21.00;;;;;22.83;52.00;101141.72;5038843;28;45488;-79
2021/09/04 05:07:47;;;;;;;;;186.00;150.50;;;;;22.83;51.90;101149.66;5038699;28;45334;-79
2021/09/04 05:10:12;;;;;;;;;46.00;35.50;;;;;22.82;51.96;101146.13;5035200;28;45298;-80
2021/09/04 05:12:38;;;;;;;;;38.00;31.00;;;;;22.81;52.13;101148.75;5019156;28;45463;-79
2021/09/04 05:15:04;;;;;;;;;20.50;18.00;;;;;22.83;52.15;101161.09;5019262;28;45624;-80
2021/09/04 05:17:30;;;;;;;;;20.25;19.50;;;;;22.82;51.95;101161.09;5028140;28;45235;-79
2021/09/04 05:19:56;;;;;;;;;18.75;17.25;;;;;22.78;51.94;101156.72;5041347;28;45342;-80
2021/09/04 05:22:21;;;;;;;;;23.50;21.50;;;;;22.75;52.07;101148.78;5039671;28;45433;-82
2021/09/04 05:24:47;;;;;;;;;18.75;18.75;;;;;22.72;52.24;101160.22;5039275;28;45503;-80
2021/09/04 05:27:12;;;;;;;;;21.25;19.25;;;;;22.71;52.25;101161.09;5031437;28;46048;-80
2021/09/04 05:29:38;;;;;;;;;20.25;18.00;;;;;22.69;52.54;101165.50;5021119;28;45273;-80
2021/09/04 05:32:04;;;;;;;;;20.50;18.25;;;;;22.73;52.25;101164.63;5018601;28;45308;-79
2021/09/04 05:34:29;;;;;;;;;21.50;19.25;;;;;22.75;52.39;101170.75;5037701;28;46289;-79
2021/09/04 05:36:55;;;;;;;;;21.00;16.25;;;;;22.74;52.43;101169.00;5035378;28;48053;-80
2021/09/04 05:39:21;;;;;;;;;18.75;15.50;;;;;22.77;52.40;101171.66;5038153;28;45424;-80
2021/09/04 05:41:46;;;;;;;;;21.75;18.75;;;;;22.79;52.55;101166.34;5038712;28;45353;-80
2021/09/04 05:44:12;;;;;;;;;20.25;20.25;;;;;22.78;52.56;101178.69;5038720;28;45421;-80
2021/09/04 05:46:37;;;;;;;;;16.00;15.00;;;;;22.80;52.33;101184.84;5020077;28;45319;-81
2021/09/04 05:49:03;;;;;;;;;21.50;17.00;;;;;22.80;51.84;101176.94;5018283;28;45477;-80
2021/09/04 05:51:28;;;;;;;;;20.75;19.75;;;;;22.78;52.44;101173.41;5018214;28;45465;-80
2021/09/04 05:53:54;;;;;;;;;22.50;18.25;;;;;22.77;52.83;101179.56;5018647;28;45320;-80
2021/09/04 05:56:19;;;;;;;;;21.00;20.50;;;;;22.77;52.69;101176.94;5018002;28;45988;-81
2021/09/04 05:58:45;;;;;;;;;17.75;17.25;;;;;22.77;52.67;101178.69;5030734;28;45216;-81
2021/09/04 06:01:11;;;;;;;;;16.25;15.25;;;;;22.78;52.95;101175.19;5018905;28;45508;-80
2021/09/04 06:03:37;;;;;;;;;18.75;17.00;;;;;22.76;52.86;101177.81;5018771;28;45249;-80
2021/09/04 06:06:03;;;;;;;;;18.25;17.75;;;;;22.79;52.80;101175.16;5018133;28;45389;-80
2021/09/04 06:08:29;;;;;;;;;22.00;21.50;;;;;22.83;52.94;101176.03;5017904;28;45674;-80
2021/09/04 06:10:55;;;;;;;;;21.00;19.25;;;;;22.81;53.19;101183.97;5018403;28;45385;-81
2021/09/04 06:13:20;;;;;;;;;19.50;19.00;;;;;22.80;53.44;101186.59;5031322;28;45708;-80
2021/09/04 06:15:46;;;;;;;;;20.50;20.50;;;;;22.77;54.09;101192.75;5019753;28;46106;-79
2021/09/04 06:18:13;;;;;;;;;20.50;17.25;;;;;22.76;54.64;101191.00;5017325;28;45543;-80
2021/09/04 06:20:39;;;;;;;;;20.50;18.25;;;;;22.78;54.74;101186.59;5027021;28;45571;-79
2021/09/04 06:23:05;;;;;;;;;22.25;20.00;;;;;22.74;54.98;101192.75;5024288;28;45614;-81
2021/09/04 06:25:33;;;;;;;;;19.75;18.75;;;;;22.77;54.92;101190.13;5030193;28;45371;-80
2021/09/04 06:27:58;;;;;;;;;18.75;17.75;;;;;22.78;55.12;101194.53;5028831;28;45369;-81
2021/09/04 06:30:24;;;;;;;;;20.25;19.25;;;;;22.75;55.06;101197.16;5027252;28;45424;-80
2021/09/04 06:32:50;;;;;;;;;21.00;20.25;;;;;22.75;55.25;101193.66;5026688;28;45845;-81
2021/09/04 06:35:15;;;;;;;;;21.25;21.25;;;;;22.73;55.55;101194.53;5028409;28;45474;-81
2021/09/04 06:37:41;;;;;;;;;19.75;18.25;;;;;22.71;55.97;101190.13;5043961;28;46008;-80
2021/09/04 06:40:07;;;;;;;;;23.25;19.75;;;;;22.70;56.21;101189.25;5039067;28;45547;-85
2021/09/04 06:42:32;;;;;;;;;23.50;19.50;;;;;22.72;56.23;101192.75;5042035;28;45429;-85
2021/09/04 06:44:58;;;;;;;;;19.00;18.25;;;;;22.73;55.98;101193.66;5038009;28;45936;-84
2021/09/04 06:47:23;;;;;;;;;24.75;21.25;;;;;22.76;56.09;101191.00;5024780;28;45517;-83
2021/09/04 06:49:49;;;;;;;;;23.75;22.00;;;;;22.77;56.21;101190.13;5034339;28;45818;-82
2021/09/04 06:52:15;;;;;;;;;23.75;21.25;;;;;22.78;57.31;101197.16;5036178;28;45453;-78
2021/09/04 06:54:42;;;;;;;;;20.75;19.75;;;;;22.77;57.90;101190.13;5037960;28;46194;-87
2021/09/04 06:57:09;;;;;;;;;27.75;23.25;;;;;22.76;58.35;101195.41;5043449;28;45307;-79
2021/09/04 06:59:36;;;;;;;;;23.50;20.75;;;;;22.72;57.94;101192.75;5037855;28;45498;-82
2021/09/04 07:02:02;;;;;;;;;26.25;24.75;;;;;22.72;57.79;101187.50;5042803;28;45676;-89
2021/09/04 07:04:28;;;;;;;;;24.50;21.50;;;;;22.72;57.80;101194.53;5023782;28;45992;-82
2021/09/04 07:06:53;;;;;;;;;22.00;20.50;;;;;22.69;59.07;101195.41;5018783;28;45292;-82
2021/09/04 07:09:19;;;;;;;;;17.00;15.50;;;;;22.69;59.29;101191.88;5023223;28;45395;-82
2021/09/04 07:11:44;;;;;;;;;26.25;24.50;;;;;22.69;58.52;101194.53;5022950;28;45276;-87
2021/09/04 07:14:10;;;;;;;;;25.25;21.75;;;;;22.73;59.32;101196.31;5038833;28;45449;-85
2021/09/04 07:16:36;;;;;;;;;21.25;20.50;;;;;22.72;59.54;101199.81;5039632;28;45331;-82
2021/09/04 07:19:02;;;;;;;;;23.50;20.25;;;;;22.68;60.16;101191.00;5037252;28;45244;-83
2021/09/04 07:21:27;;;;;;;;;25.25;22.25;;;;;22.69;59.45;101197.16;5039702;28;45453;-83
2021/09/04 07:23:53;;;;;;;;;25.25;23.50;;;;;22.73;59.86;101198.94;5039572;28;45399;-84
2021/09/04 07:26:18;;;;;;;;;27.50;25.75;;;;;22.70;59.78;101194.53;5039283;28;45297;-85
2021/09/04 07:28:44;;;;;;;;;24.50;21.50;;;;;22.76;59.51;101198.06;5054303;28;45292;-84
2021/09/04 07:31:10;;;;;;;;;24.75;24.00;;;;;22.78;60.08;101194.53;5023054;28;45505;-81
2021/09/04 07:33:38;;;;;;;;;24.75;24.00;;;;;22.78;59.73;101201.59;5037449;28;45441;-79
2021/09/04 07:36:08;;;;;;;;;25.25;24.25;;;;;22.77;59.71;101199.81;5039617;28;45327;-82
2021/09/04 07:38:35;;;;;;;;;23.50;23.50;;;;;22.76;60.07;101201.56;5028557;28;45252;-81
2021/09/04 07:41:01;;;;;;;;;28.50;22.00;;;;;22.76;60.17;101209.47;5031409;28;45385;-81
2021/09/04 07:43:26;;;;;;;;;28.75;25.75;;;;;22.75;60.23;101202.44;5019600;28;45312;-81
2021/09/04 07:45:52;;;;;;;;;25.00;24.50;;;;;22.78;59.63;101204.22;5018200;28;45465;-85
2021/09/04 07:48:18;;;;;;;;;30.25;28.50;;;;;22.76;59.69;101217.41;5020996;28;45405;-84
2021/09/04 07:50:43;;;;;;;;;30.50;24.50;;;;;22.74;59.87;101211.22;5042606;28;44935;-82
2021/09/04 07:53:09;;;;;;;;;30.75;26.75;;;;;22.76;59.77;101204.19;5025077;28;46818;-84
2021/09/04 07:55:35;;;;;;;;;28.25;24.75;;;;;22.79;60.06;101204.22;5022425;28;45358;-83
2021/09/04 07:58:02;;;;;;;;;31.25;28.75;;;;;22.85;60.25;101208.63;5016477;28;45249;-85
2021/09/04 08:00:28;;;;;;;;;30.00;25.50;;;;;22.88;60.35;101208.63;5017492;28;45510;-82
2021/09/04 08:02:54;;;;;;;;;31.25;28.75;;;;;22.88;60.38;101208.63;5021806;28;45418;-89
2021/09/04 08:05:20;;;;;;;;;29.50;27.25;;;;;22.84;60.70;101207.72;5021887;28;45314;-89
2021/09/04 08:07:45;;;;;;;;;28.50;27.25;;;;;22.80;60.86;101215.63;5029161;28;45377;-88
2021/09/04 08:10:11;;;;;;;;;41.50;35.25;;;;;22.80;61.00;101210.34;5017770;28;45389;-88
2021/09/04 08:12:37;;;;;;;;;33.50;30.25;;;;;22.81;60.67;101210.38;5030978;28;46582;-88
2021/09/04 08:15:04;;;;;;;;;28.25;25.75;;;;;22.83;60.94;101213.00;5037128;28;45439;-90
2021/09/04 08:17:29;;;;;;;;;34.75;30.75;;;;;22.82;60.66;101214.78;5034474;28;45501;-88
2021/09/04 08:19:55;;;;;;;;;33.50;29.50;;;;;22.79;60.93;101214.78;5015804;28;45257;-86
2021/09/04 08:22:21;;;;;;;;;38.25;29.75;;;;;22.80;60.83;101215.63;5020111;28;45393;-87
2021/09/04 08:24:46;;;;;;;;;35.75;30.50;;;;;22.80;60.70;101207.72;5040307;28;45172;-87
2021/09/04 08:27:12;;;;;;;;;37.25;32.00;;;;;22.81;61.19;101213.03;5038113;28;45320;-83
2021/09/04 08:29:38;;;;;;;;;34.00;31.25;;;;;22.87;60.97;101213.00;5037189;28;45635;-81
2021/09/04 08:32:04;;;;;;;;;36.75;30.50;;;;;22.87;61.15;101220.06;5036098;28;46208;-81
2021/09/04 08:34:29;;;;;;;;;35.25;32.50;;;;;22.83;61.08;101220.94;5036343;28;45750;-81
2021/09/04 08:36:55;;;;;;;;;39.75;33.50;;;;;22.81;61.19;101222.69;5036231;28;45268;-82
2021/09/04 08:39:20;;;;;;;;;34.25;30.25;;;;;22.82;61.53;101230.63;5036086;28;45680;-85
2021/09/04 08:41:46;;;;;;;;;37.50;31.50;;;;;22.83;61.38;101236.78;5025304;28;45589;-83
2021/09/04 08:44:12;;;;;;;;;37.00;30.25;;;;;22.86;61.50;101237.66;5014955;28;45502;-82
2021/09/04 08:46:38;;;;;;;;;36.50;32.00;;;;;22.90;61.25;101240.28;5013648;28;45446;-83
2021/09/04 08:49:06;;;;;;;;;33.25;30.50;;;;;22.94;60.99;101236.78;5013722;28;45615;-81
2021/09/04 08:51:33;;;;;;;;;35.75;31.50;;;;;22.99;61.05;101237.66;5033690;28;45413;-83
2021/09/04 08:53:58;;;;;;;;;37.25;32.25;;;;;23.00;61.09;101240.28;5018068;28;45807;-82
2021/09/04 08:56:26;;;;;;;;;35.75;30.25;;;;;23.03;60.98;101245.56;5014422;28;45344;-82
2021/09/04 08:58:51;;;;;;;;;36.00;31.00;;;;;23.07;60.55;101243.81;5021001;28;45584;-82
2021/09/04 09:01:26;;;;;;;;;44.00;35.50;;;;;23.07;60.88;101241.16;5015842;28;45876;-83
2021/09/04 09:03:53;;;;;;;;;39.00;31.25;;;;;23.09;60.65;101251.75;5016915;28;45436;-82
2021/09/04 09:06:33;;;;;;;;;36.50;32.00;;;;;23.11;61.09;101247.34;5015448;28;45396;-82
2021/09/04 09:08:59;;;;;;;;;39.00;33.75;;;;;23.13;60.68;101246.47;5016198;28;45410;-82
2021/09/04 09:11:24;;;;;;;;;39.50;31.00;;;;;23.14;60.70;101247.34;5015177;28;45990;-82
2021/09/04 09:13:55;;;;;;;;;35.75;32.00;;;;;23.16;60.60;101254.38;5015351;28;45572;-82
2021/09/04 09:16:23;;;;;;;;;34.25;32.00;;;;;23.16;60.91;101257.00;5015376;28;45275;-82
2021/09/04 09:18:57;;;;;;;;;36.75;32.00;;;;;23.16;61.14;101254.38;5014896;28;45463;-83
2021/09/04 09:21:30;;;;;;;;;38.75;32.00;;;;;23.16;61.02;101254.38;5014925;28;45576;-83
2021/09/04 09:24:07;;;;;;;;;33.25;31.75;;;;;23.20;61.15;101252.66;5016907;28;45498;-85
2021/09/04 09:26:33;;;;;;;;;35.75;32.00;;;;;23.25;60.94;101258.81;5021861;28;45378;-83
2021/09/04 09:29:18;;;;;;;;;35.25;32.25;;;;;23.29;61.21;101252.66;5016550;28;45354;-83
2021/09/04 09:31:44;;;;;;;;;36.50;30.50;;;;;23.33;61.43;101253.53;5015156;28;45538;-84
2021/09/04 09:34:12;;;;;;;;;35.00;32.75;;;;;23.37;61.21;101250.00;5016865;28;45346;-82
2021/09/04 09:36:55;;;;;;;;;40.00;32.25;;;;;23.43;61.32;101255.28;5018926;28;45375;-84
2021/09/04 09:39:25;;;;;;;;;32.75;27.75;;;;;23.48;61.34;101247.34;5033927;28;45384;-83
2021/09/04 09:41:53;;;;;;;;;30.50;28.50;;;;;23.50;61.12;101251.72;5018318;28;45393;-83
2021/09/04 09:44:21;;;;;;;;;27.25;23.50;;;;;23.51;60.55;101249.97;5036873;28;45329;-84
2021/09/04 09:46:54;;;;;;;;;31.25;25.50;;;;;23.53;60.38;101249.97;5038360;28;45388;-84
2021/09/04 09:49:30;;;;;;;;;31.25;25.00;;;;;23.53;59.87;101253.50;5036512;28;45349;-81
2021/09/04 09:51:58;;;;;;;;;26.50;24.75;;;;;23.55;60.17;101248.19;5022309;28;45458;-82
2021/09/04 09:54:26;;;;;;;;;24.50;24.50;;;;;23.60;59.76;101251.69;5025023;28;45335;-80
2021/09/04 09:56:57;;;;;;;;;25.50;23.50;;;;;23.63;59.48;101243.78;5020131;28;45340;-79
2021/09/04 09:59:26;;;;;;;;;22.50;20.00;;;;;23.67;59.11;101245.53;5033000;28;45421;-84
2021/09/04 10:02:03;;;;;;;;;23.50;22.50;;;;;23.70;59.57;101236.69;5026427;28;47329;-87
2021/09/04 10:04:32;;;;;;;;;23.50;22.00;;;;;23.76;60.02;101228.75;5043788;28;45478;-87
2021/09/04 10:07:00;;;;;;;;;21.50;20.25;;;;;23.88;59.59;101235.78;5044276;28;45393;-80
2021/09/04 10:09:27;;;;;;;;;27.00;23.75;;;;;23.98;59.03;101226.06;5037904;28;45600;-85
2021/09/04 10:11:53;;;;;;;;;21.50;20.50;;;;;24.06;58.79;101225.13;5028063;28;45511;-84
2021/09/04 10:14:20;;;;;;;;;21.75;19.00;;;;;24.11;58.32;101220.72;5047935;28;45496;-78
2021/09/04 10:16:49;;;;;;;;;21.00;20.00;;;;;24.21;58.44;101231.25;5031863;28;45807;-79
2021/09/04 10:19:21;;;;;;;;;22.50;20.00;;;;;24.31;58.61;101230.31;5038140;28;45542;-76
2021/09/04 10:21:46;;;;;;;;;20.00;19.00;;;;;24.42;58.24;101232.88;5037458;28;45504;-78
2021/09/04 10:24:13;;;;;;;;;19.00;19.00;;;;;24.50;57.54;101228.44;5020066;28;45382;-78
2021/09/04 10:26:41;;;;;;;;;23.75;20.00;;;;;24.56;57.67;101228.38;5037296;28;45464;-79
2021/09/04 10:29:18;;;;;;;;;23.50;23.25;;;;;24.63;57.51;101216.00;5037864;28;45211;-79
2021/09/04 10:31:58;;;;;;;;;20.50;20.50;;;;;24.72;56.97;101218.59;5039033;28;46516;-84
2021/09/04 10:34:28;;;;;;;;;26.00;24.75;;;;;24.85;56.97;101219.38;5017535;28;45394;-85
2021/09/04 10:37:13;;;;;;;;;27.00;21.00;;;;;25.01;56.59;101224.56;5019338;28;45374;-81
2021/09/04 10:39:59;;;;;;;;;23.00;21.75;;;;;25.21;56.59;101221.72;5040027;28;45195;-81
2021/09/04 10:42:31;;;;;;;;;20.00;19.50;;;;;25.38;56.17;101225.97;5020001;28;45476;-83
2021/09/04 10:45:14;;;;;;;;;21.00;18.50;;;;;25.59;55.55;101230.22;5036165;28;45227;-80
2021/09/04 10:47:44;;;;;;;;;22.25;20.75;;;;;25.74;55.39;101224.72;5038337;28;45342;-82
2021/09/04 10:50:27;;;;;;;;;24.75;22.00;;;;;25.86;55.60;101230.78;5028717;28;45548;-84
2021/09/04 10:52:56;;;;;;;;;26.25;22.75;;;;;25.96;55.49;101232.41;5023468;28;45502;-85
2021/09/04 10:55:32;;;;;;;;;24.50;22.00;;;;;26.06;54.78;101227.88;5029002;28;45808;-82
2021/09/04 10:58:13;;;;;;;;;19.75;19.00;;;;;26.14;55.11;101226.03;5034739;28;45424;-82
2021/09/04 11:00:46;;;;;;;;;24.25;19.75;;;;;26.16;54.69;101218.03;5026047;28;45496;-83
2021/09/04 11:03:17;;;;;;;;;24.00;21.50;;;;;26.17;54.26;101223.34;5021864;28;45696;-82
2021/09/04 11:05:47;;;;;;;;;22.50;21.00;;;;;26.18;53.23;101221.53;5028947;28;45687;-81
2021/09/04 11:08:19;;;;;;;;;22.25;21.00;;;;;26.18;53.47;101224.19;5021850;28;45414;-87